sensor_id;sensor_type;location;lat;lon;timestamp;P1;durP1;ratioP1;P2;durP2;ratioP2
9222;SDS011;7557;51.698;3.942;2023-07-24T00:02:02;944.53;;;882.30;;
9222;SDS011;7557;51.698;3.942;2023-07-24T00:04:30;936.55;;;875.70;;
9222;SDS011;7557;51.698;3.942;2023-07-24T00:06:59;942.63;;;880.40;;
9222;SDS011;7557;51.698;3.942;2023-07-24T00:09:26;951.88;;;889.67;;
9222;SDS011;7557;51.698;3.942;2023-07-24T00:11:54;939.42;;;879.55;;
9222;SDS011;7557;51.698;3.942;2023-07-24T00:14:21;943.92;;;882.83;;
9222;SDS011;7557;51.698;3.942;2023-07-24T00:16:48;940.80;;;880.97;;
9222;SDS011;7557;51.698;3.942;2023-07-24T00:19:16;904.15;;;849.35;;
9222;SDS011;7557;51.698;3.942;2023-07-24T00:21:43;911.28;;;855.92;;
9222;SDS011;7557;51.698;3.942;2023-07-24T00:24:12;899.95;;;846.10;;
9222;SDS011;7557;51.698;3.942;2023-07-24T00:26:39;923.92;;;864.58;;
9222;SDS011;7557;51.698;3.942;2023-07-24T00:29:06;901.47;;;844.90;;
9222;SDS011;7557;51.698;3.942;2023-07-24T00:31:33;905.83;;;847.63;;
9222;SDS011;7557;51.698;3.942;2023-07-24T00:34:01;871.20;;;818.33;;
9222;SDS011;7557;51.698;3.942;2023-07-24T00:36:28;869.30;;;815.15;;
9222;SDS011;7557;51.698;3.942;2023-07-24T00:38:55;849.20;;;798.13;;
9222;SDS011;7557;51.698;3.942;2023-07-24T00:41:24;881.92;;;827.42;;
9222;SDS011;7557;51.698;3.942;2023-07-24T00:43:51;913.85;;;855.35;;
9222;SDS011;7557;51.698;3.942;2023-07-24T00:49:38;843.20;;;792.78;;
9222;SDS011;7557;51.698;3.942;2023-07-24T00:52:06;862.00;;;810.33;;
9222;SDS011;7557;51.698;3.942;2023-07-24T00:54:34;858.25;;;806.33;;
9222;SDS011;7557;51.698;3.942;2023-07-24T00:57:03;879.65;;;824.40;;
9222;SDS011;7557;51.698;3.942;2023-07-24T00:59:32;856.78;;;804.47;;
9222;SDS011;7557;51.698;3.942;2023-07-24T01:01:59;880.38;;;826.00;;
9222;SDS011;7557;51.698;3.942;2023-07-24T01:04:27;861.53;;;808.10;;
9222;SDS011;7557;51.698;3.942;2023-07-24T01:06:54;878.20;;;825.35;;
9222;SDS011;7557;51.698;3.942;2023-07-24T01:09:21;829.20;;;780.83;;
9222;SDS011;7557;51.698;3.942;2023-07-24T01:11:50;832.20;;;783.58;;
9222;SDS011;7557;51.698;3.942;2023-07-24T01:14:24;797.28;;;751.10;;
9222;SDS011;7557;51.698;3.942;2023-07-24T01:16:59;728.55;;;689.00;;
9222;SDS011;7557;51.698;3.942;2023-07-24T01:19:33;719.53;;;680.85;;
9222;SDS011;7557;51.698;3.942;2023-07-24T01:22:08;702.42;;;665.13;;
9222;SDS011;7557;51.698;3.942;2023-07-24T01:24:47;662.90;;;629.75;;
9222;SDS011;7557;51.698;3.942;2023-07-24T01:27:26;646.28;;;614.55;;
9222;SDS011;7557;51.698;3.942;2023-07-24T01:29:53;674.33;;;638.72;;
9222;SDS011;7557;51.698;3.942;2023-07-24T01:32:20;697.78;;;660.05;;
9222;SDS011;7557;51.698;3.942;2023-07-24T01:34:48;743.17;;;703.28;;
9222;SDS011;7557;51.698;3.942;2023-07-24T01:37:15;753.17;;;710.55;;
9222;SDS011;7557;51.698;3.942;2023-07-24T01:39:44;808.10;;;761.55;;
9222;SDS011;7557;51.698;3.942;2023-07-24T01:42:12;801.55;;;754.63;;
9222;SDS011;7557;51.698;3.942;2023-07-24T01:44:42;697.03;;;660.63;;
9222;SDS011;7557;51.698;3.942;2023-07-24T01:47:09;596.22;;;566.88;;
9222;SDS011;7557;51.698;3.942;2023-07-24T01:49:36;732.22;;;691.95;;
9222;SDS011;7557;51.698;3.942;2023-07-24T01:52:09;693.38;;;656.05;;
9222;SDS011;7557;51.698;3.942;2023-07-24T01:54:36;684.90;;;648.25;;
9222;SDS011;7557;51.698;3.942;2023-07-24T01:57:04;782.78;;;738.05;;
9222;SDS011;7557;51.698;3.942;2023-07-24T01:59:31;780.70;;;735.92;;
9222;SDS011;7557;51.698;3.942;2023-07-24T02:02:00;710.58;;;672.75;;
9222;SDS011;7557;51.698;3.942;2023-07-24T02:04:27;710.63;;;671.40;;
9222;SDS011;7557;51.698;3.942;2023-07-24T02:06:54;643.50;;;610.17;;
9222;SDS011;7557;51.698;3.942;2023-07-24T02:09:21;639.80;;;607.17;;
9222;SDS011;7557;51.698;3.942;2023-07-24T02:11:49;628.20;;;596.28;;
9222;SDS011;7557;51.698;3.942;2023-07-24T02:14:17;709.78;;;670.63;;
9222;SDS011;7557;51.698;3.942;2023-07-24T02:16:45;645.97;;;612.40;;
9222;SDS011;7557;51.698;3.942;2023-07-24T02:19:14;623.47;;;591.00;;
9222;SDS011;7557;51.698;3.942;2023-07-24T02:21:41;615.78;;;585.55;;
9222;SDS011;7557;51.698;3.942;2023-07-24T02:24:09;522.88;;;499.13;;
9222;SDS011;7557;51.698;3.942;2023-07-24T02:26:36;538.17;;;514.53;;
9222;SDS011;7557;51.698;3.942;2023-07-24T02:29:03;582.53;;;556.03;;
9222;SDS011;7557;51.698;3.942;2023-07-24T02:31:30;569.00;;;544.92;;
9222;SDS011;7557;51.698;3.942;2023-07-24T02:33:57;611.88;;;584.28;;
9222;SDS011;7557;51.698;3.942;2023-07-24T02:36:26;692.78;;;657.30;;
9222;SDS011;7557;51.698;3.942;2023-07-24T02:38:53;504.35;;;482.92;;
9222;SDS011;7557;51.698;3.942;2023-07-24T02:41:20;558.58;;;535.08;;
9222;SDS011;7557;51.698;3.942;2023-07-24T02:43:48;545.13;;;521.90;;
9222;SDS011;7557;51.698;3.942;2023-07-24T02:46:15;536.25;;;513.28;;
9222;SDS011;7557;51.698;3.942;2023-07-24T02:48:42;546.05;;;522.40;;
9222;SDS011;7557;51.698;3.942;2023-07-24T02:51:09;604.70;;;576.78;;
9222;SDS011;7557;51.698;3.942;2023-07-24T02:53:38;551.65;;;527.13;;
9222;SDS011;7557;51.698;3.942;2023-07-24T02:56:05;608.53;;;579.97;;
9222;SDS011;7557;51.698;3.942;2023-07-24T02:58:32;609.53;;;580.83;;
9222;SDS011;7557;51.698;3.942;2023-07-24T03:01:03;634.78;;;605.20;;
9222;SDS011;7557;51.698;3.942;2023-07-24T03:03:31;677.03;;;644.03;;
9222;SDS011;7557;51.698;3.942;2023-07-24T03:05:58;660.90;;;629.80;;
9222;SDS011;7557;51.698;3.942;2023-07-24T03:08:26;690.95;;;656.63;;
9222;SDS011;7557;51.698;3.942;2023-07-24T03:10:54;653.20;;;621.72;;
9222;SDS011;7557;51.698;3.942;2023-07-24T03:13:22;647.63;;;615.92;;
9222;SDS011;7557;51.698;3.942;2023-07-24T03:15:52;640.35;;;609.65;;
9222;SDS011;7557;51.698;3.942;2023-07-24T03:18:20;595.17;;;568.53;;
9222;SDS011;7557;51.698;3.942;2023-07-24T03:20:47;584.72;;;558.22;;
9222;SDS011;7557;51.698;3.942;2023-07-24T03:23:15;565.05;;;540.47;;
9222;SDS011;7557;51.698;3.942;2023-07-24T03:25:42;571.25;;;546.80;;
9222;SDS011;7557;51.698;3.942;2023-07-24T03:28:11;584.28;;;558.70;;
9222;SDS011;7557;51.698;3.942;2023-07-24T03:30:38;633.00;;;603.50;;
9222;SDS011;7557;51.698;3.942;2023-07-24T03:33:05;599.58;;;573.60;;
9222;SDS011;7557;51.698;3.942;2023-07-24T03:35:33;567.50;;;543.25;;
9222;SDS011;7557;51.698;3.942;2023-07-24T03:38:01;563.33;;;538.67;;
9222;SDS011;7557;51.698;3.942;2023-07-24T03:40:28;569.05;;;544.30;;
9222;SDS011;7557;51.698;3.942;2023-07-24T03:42:56;549.92;;;525.97;;
9222;SDS011;7557;51.698;3.942;2023-07-24T03:45:25;556.58;;;532.20;;
9222;SDS011;7557;51.698;3.942;2023-07-24T03:47:52;540.03;;;516.30;;
9222;SDS011;7557;51.698;3.942;2023-07-24T03:50:20;545.70;;;521.90;;
9222;SDS011;7557;51.698;3.942;2023-07-24T03:52:47;577.15;;;550.72;;
9222;SDS011;7557;51.698;3.942;2023-07-24T03:55:14;617.30;;;589.53;;
9222;SDS011;7557;51.698;3.942;2023-07-24T03:57:42;629.30;;;600.40;;
9222;SDS011;7557;51.698;3.942;2023-07-24T04:00:10;568.35;;;542.33;;
9222;SDS011;7557;51.698;3.942;2023-07-24T04:02:40;523.92;;;499.55;;
9222;SDS011;7557;51.698;3.942;2023-07-24T04:05:08;586.80;;;557.90;;
9222;SDS011;7557;51.698;3.942;2023-07-24T04:07:35;622.05;;;589.97;;
9222;SDS011;7557;51.698;3.942;2023-07-24T04:10:03;643.05;;;608.75;;
9222;SDS011;7557;51.698;3.942;2023-07-24T04:12:31;711.72;;;672.17;;
9222;SDS011;7557;51.698;3.942;2023-07-24T04:14:59;721.38;;;680.67;;
9222;SDS011;7557;51.698;3.942;2023-07-24T04:17:26;728.47;;;686.08;;
9222;SDS011;7557;51.698;3.942;2023-07-24T04:19:55;758.70;;;714.22;;
9222;SDS011;7557;51.698;3.942;2023-07-24T04:22:22;766.85;;;720.83;;
9222;SDS011;7557;51.698;3.942;2023-07-24T04:24:50;754.85;;;711.08;;
9222;SDS011;7557;51.698;3.942;2023-07-24T04:27:17;725.58;;;685.00;;
9222;SDS011;7557;51.698;3.942;2023-07-24T04:29:45;623.60;;;591.95;;
9222;SDS011;7557;51.698;3.942;2023-07-24T04:32:12;548.22;;;521.90;;
9222;SDS011;7557;51.698;3.942;2023-07-24T04:34:42;520.33;;;498.42;;
9222;SDS011;7557;51.698;3.942;2023-07-24T04:37:11;652.45;;;622.10;;
9222;SDS011;7557;51.698;3.942;2023-07-24T04:39:39;629.65;;;600.78;;
9222;SDS011;7557;51.698;3.942;2023-07-24T04:42:06;580.15;;;554.13;;
9222;SDS011;7557;51.698;3.942;2023-07-24T04:44:34;645.88;;;614.47;;
9222;SDS011;7557;51.698;3.942;2023-07-24T04:47:01;741.78;;;702.88;;
9222;SDS011;7557;51.698;3.942;2023-07-24T04:49:29;797.25;;;753.65;;
9222;SDS011;7557;51.698;3.942;2023-07-24T04:52:00;757.75;;;718.30;;
9222;SDS011;7557;51.698;3.942;2023-07-24T04:54:30;763.58;;;724.40;;
9222;SDS011;7557;51.698;3.942;2023-07-24T04:56:57;759.55;;;721.10;;
9222;SDS011;7557;51.698;3.942;2023-07-24T04:59:25;723.42;;;687.85;;
9222;SDS011;7557;51.698;3.942;2023-07-24T05:01:52;716.83;;;681.33;;
9222;SDS011;7557;51.698;3.942;2023-07-24T05:04:19;742.92;;;705.58;;
9222;SDS011;7557;51.698;3.942;2023-07-24T05:06:46;733.58;;;697.08;;
9222;SDS011;7557;51.698;3.942;2023-07-24T05:09:14;736.28;;;699.97;;
9222;SDS011;7557;51.698;3.942;2023-07-24T05:11:43;731.00;;;694.75;;
9222;SDS011;7557;51.698;3.942;2023-07-24T05:14:10;740.92;;;704.28;;
9222;SDS011;7557;51.698;3.942;2023-07-24T05:16:37;738.95;;;702.15;;
9222;SDS011;7557;51.698;3.942;2023-07-24T05:19:05;725.25;;;688.67;;
9222;SDS011;7557;51.698;3.942;2023-07-24T05:21:32;740.53;;;701.10;;
9222;SDS011;7557;51.698;3.942;2023-07-24T05:23:59;742.67;;;704.95;;
9222;SDS011;7557;51.698;3.942;2023-07-24T05:26:27;704.92;;;668.90;;
9222;SDS011;7557;51.698;3.942;2023-07-24T05:28:58;710.45;;;674.40;;
9222;SDS011;7557;51.698;3.942;2023-07-24T05:31:25;735.95;;;695.60;;
9222;SDS011;7557;51.698;3.942;2023-07-24T05:33:52;645.47;;;613.42;;
9222;SDS011;7557;51.698;3.942;2023-07-24T05:36:20;653.72;;;622.33;;
9222;SDS011;7557;51.698;3.942;2023-07-24T05:38:47;759.92;;;719.80;;
9222;SDS011;7557;51.698;3.942;2023-07-24T05:41:15;773.05;;;732.13;;
9222;SDS011;7557;51.698;3.942;2023-07-24T05:43:42;755.10;;;714.75;;
9222;SDS011;7557;51.698;3.942;2023-07-24T05:46:11;729.45;;;690.03;;
9222;SDS011;7557;51.698;3.942;2023-07-24T05:48:39;768.80;;;727.35;;
9222;SDS011;7557;51.698;3.942;2023-07-24T05:51:06;725.90;;;687.70;;
9222;SDS011;7557;51.698;3.942;2023-07-24T05:53:34;742.75;;;702.83;;
9222;SDS011;7557;51.698;3.942;2023-07-24T05:56:01;736.30;;;698.17;;
9222;SDS011;7557;51.698;3.942;2023-07-24T05:58:30;732.58;;;695.75;;
9222;SDS011;7557;51.698;3.942;2023-07-24T06:00:57;763.55;;;723.28;;
9222;SDS011;7557;51.698;3.942;2023-07-24T06:03:26;752.13;;;712.05;;
9222;SDS011;7557;51.698;3.942;2023-07-24T06:05:53;760.20;;;719.75;;
9222;SDS011;7557;51.698;3.942;2023-07-24T06:08:21;767.08;;;726.78;;
9222;SDS011;7557;51.698;3.942;2023-07-24T06:10:49;775.90;;;736.40;;
9222;SDS011;7557;51.698;3.942;2023-07-24T06:13:17;744.13;;;706.75;;
9222;SDS011;7557;51.698;3.942;2023-07-24T06:15:46;724.03;;;688.30;;
9222;SDS011;7557;51.698;3.942;2023-07-24T06:18:14;753.60;;;714.08;;
9222;SDS011;7557;51.698;3.942;2023-07-24T06:20:43;762.28;;;722.22;;
9222;SDS011;7557;51.698;3.942;2023-07-24T06:23:11;779.03;;;737.85;;
9222;SDS011;7557;51.698;3.942;2023-07-24T06:25:38;787.40;;;745.45;;
9222;SDS011;7557;51.698;3.942;2023-07-24T06:28:09;725.88;;;688.90;;
9222;SDS011;7557;51.698;3.942;2023-07-24T06:30:38;740.22;;;702.20;;
9222;SDS011;7557;51.698;3.942;2023-07-24T06:33:05;742.55;;;703.50;;
9222;SDS011;7557;51.698;3.942;2023-07-24T06:35:32;729.28;;;691.63;;
9222;SDS011;7557;51.698;3.942;2023-07-24T06:38:01;730.17;;;692.10;;
9222;SDS011;7557;51.698;3.942;2023-07-24T06:40:29;765.80;;;723.65;;
9222;SDS011;7557;51.698;3.942;2023-07-24T06:42:56;768.85;;;727.20;;
9222;SDS011;7557;51.698;3.942;2023-07-24T06:45:24;722.95;;;686.03;;
9222;SDS011;7557;51.698;3.942;2023-07-24T06:47:51;721.45;;;684.75;;
9222;SDS011;7557;51.698;3.942;2023-07-24T06:50:19;714.90;;;678.05;;
9222;SDS011;7557;51.698;3.942;2023-07-24T06:52:46;741.13;;;701.40;;
9222;SDS011;7557;51.698;3.942;2023-07-24T06:55:17;721.15;;;684.45;;
9222;SDS011;7557;51.698;3.942;2023-07-24T06:57:44;734.70;;;696.45;;
9222;SDS011;7557;51.698;3.942;2023-07-24T07:00:13;736.47;;;699.15;;
9222;SDS011;7557;51.698;3.942;2023-07-24T07:02:41;724.75;;;688.00;;
9222;SDS011;7557;51.698;3.942;2023-07-24T07:05:11;711.55;;;675.60;;
9222;SDS011;7557;51.698;3.942;2023-07-24T07:07:38;727.28;;;690.30;;
9222;SDS011;7557;51.698;3.942;2023-07-24T07:10:06;719.15;;;681.88;;
9222;SDS011;7557;51.698;3.942;2023-07-24T07:12:35;752.90;;;714.08;;
9222;SDS011;7557;51.698;3.942;2023-07-24T07:15:03;785.08;;;743.22;;
9222;SDS011;7557;51.698;3.942;2023-07-24T07:17:31;781.70;;;739.25;;
9222;SDS011;7557;51.698;3.942;2023-07-24T07:19:58;788.25;;;745.97;;
9222;SDS011;7557;51.698;3.942;2023-07-24T07:22:26;756.45;;;716.65;;
9222;SDS011;7557;51.698;3.942;2023-07-24T07:24:53;781.03;;;738.88;;
9222;SDS011;7557;51.698;3.942;2023-07-24T07:27:20;768.30;;;727.03;;
9222;SDS011;7557;51.698;3.942;2023-07-24T07:29:49;762.72;;;721.83;;
9222;SDS011;7557;51.698;3.942;2023-07-24T07:32:16;752.17;;;714.13;;
9222;SDS011;7557;51.698;3.942;2023-07-24T07:34:44;734.45;;;697.88;;
9222;SDS011;7557;51.698;3.942;2023-07-24T07:37:12;743.70;;;705.60;;
9222;SDS011;7557;51.698;3.942;2023-07-24T07:39:39;753.80;;;712.72;;
9222;SDS011;7557;51.698;3.942;2023-07-24T07:42:06;759.55;;;720.28;;
9222;SDS011;7557;51.698;3.942;2023-07-24T07:44:34;755.90;;;716.38;;
9222;SDS011;7557;51.698;3.942;2023-07-24T07:47:02;754.63;;;715.40;;
9222;SDS011;7557;51.698;3.942;2023-07-24T07:49:31;776.13;;;734.25;;
9222;SDS011;7557;51.698;3.942;2023-07-24T07:51:58;773.58;;;732.92;;
9222;SDS011;7557;51.698;3.942;2023-07-24T07:54:26;631.15;;;601.47;;
9222;SDS011;7557;51.698;3.942;2023-07-24T07:56:56;706.08;;;670.75;;
9222;SDS011;7557;51.698;3.942;2023-07-24T07:59:23;637.85;;;606.30;;
9222;SDS011;7557;51.698;3.942;2023-07-24T08:01:50;727.83;;;691.55;;
9222;SDS011;7557;51.698;3.942;2023-07-24T08:04:19;729.20;;;691.38;;
9222;SDS011;7557;51.698;3.942;2023-07-24T08:06:47;623.45;;;593.28;;
9222;SDS011;7557;51.698;3.942;2023-07-24T08:09:14;722.05;;;685.42;;
9222;SDS011;7557;51.698;3.942;2023-07-24T08:11:42;767.55;;;727.00;;
9222;SDS011;7557;51.698;3.942;2023-07-24T08:14:10;663.28;;;631.08;;
9222;SDS011;7557;51.698;3.942;2023-07-24T08:16:38;643.50;;;611.50;;
9222;SDS011;7557;51.698;3.942;2023-07-24T08:19:05;738.35;;;699.67;;
9222;SDS011;7557;51.698;3.942;2023-07-24T08:21:34;794.60;;;751.63;;
9222;SDS011;7557;51.698;3.942;2023-07-24T08:24:02;788.08;;;744.08;;
9222;SDS011;7557;51.698;3.942;2023-07-24T08:26:30;808.45;;;763.25;;
9222;SDS011;7557;51.698;3.942;2023-07-24T08:28:59;787.50;;;744.35;;
9222;SDS011;7557;51.698;3.942;2023-07-24T08:31:26;736.63;;;698.88;;
9222;SDS011;7557;51.698;3.942;2023-07-24T08:33:53;696.85;;;663.92;;
9222;SDS011;7557;51.698;3.942;2023-07-24T08:36:20;714.97;;;679.53;;
9222;SDS011;7557;51.698;3.942;2023-07-24T08:38:49;683.40;;;649.83;;
9222;SDS011;7557;51.698;3.942;2023-07-24T08:41:16;727.30;;;690.38;;
9222;SDS011;7557;51.698;3.942;2023-07-24T08:43:43;708.90;;;673.85;;
9222;SDS011;7557;51.698;3.942;2023-07-24T08:46:11;761.42;;;721.05;;
9222;SDS011;7557;51.698;3.942;2023-07-24T08:48:40;701.75;;;668.58;;
9222;SDS011;7557;51.698;3.942;2023-07-24T08:51:10;797.58;;;753.33;;
9222;SDS011;7557;51.698;3.942;2023-07-24T08:53:38;747.72;;;707.70;;
9222;SDS011;7557;51.698;3.942;2023-07-24T08:56:08;746.00;;;707.20;;
9222;SDS011;7557;51.698;3.942;2023-07-24T08:58:37;808.20;;;763.33;;
9222;SDS011;7557;51.698;3.942;2023-07-24T09:01:05;794.22;;;749.25;;
9222;SDS011;7557;51.698;3.942;2023-07-24T09:03:33;772.58;;;731.10;;
9222;SDS011;7557;51.698;3.942;2023-07-24T09:06:02;825.67;;;777.72;;
9222;SDS011;7557;51.698;3.942;2023-07-24T09:08:32;812.90;;;765.55;;
9222;SDS011;7557;51.698;3.942;2023-07-24T09:11:00;635.88;;;607.03;;
9222;SDS011;7557;51.698;3.942;2023-07-24T09:13:31;644.35;;;614.97;;
9222;SDS011;7557;51.698;3.942;2023-07-24T09:15:59;652.38;;;622.92;;
9222;SDS011;7557;51.698;3.942;2023-07-24T09:18:37;688.00;;;654.63;;
9222;SDS011;7557;51.698;3.942;2023-07-24T09:21:06;732.85;;;695.50;;
9222;SDS011;7557;51.698;3.942;2023-07-24T09:23:34;675.78;;;643.22;;
9222;SDS011;7557;51.698;3.942;2023-07-24T09:26:05;731.05;;;694.65;;
9222;SDS011;7557;51.698;3.942;2023-07-24T09:28:34;753.63;;;715.40;;
9222;SDS011;7557;51.698;3.942;2023-07-24T09:31:02;743.03;;;705.25;;
9222;SDS011;7557;51.698;3.942;2023-07-24T09:33:36;725.45;;;690.17;;
9222;SDS011;7557;51.698;3.942;2023-07-24T09:36:04;736.53;;;699.50;;
9222;SDS011;7557;51.698;3.942;2023-07-24T09:38:33;743.00;;;704.55;;
9222;SDS011;7557;51.698;3.942;2023-07-24T09:41:01;724.17;;;687.58;;
9222;SDS011;7557;51.698;3.942;2023-07-24T09:43:29;710.42;;;676.15;;
9222;SDS011;7557;51.698;3.942;2023-07-24T09:45:59;666.15;;;635.05;;
9222;SDS011;7557;51.698;3.942;2023-07-24T09:48:26;699.05;;;664.83;;
9222;SDS011;7557;51.698;3.942;2023-07-24T09:50:54;687.63;;;655.13;;
9222;SDS011;7557;51.698;3.942;2023-07-24T09:53:24;671.50;;;639.50;;
9222;SDS011;7557;51.698;3.942;2023-07-24T09:55:59;682.15;;;650.00;;
9222;SDS011;7557;51.698;3.942;2023-07-24T09:58:28;711.13;;;676.33;;
9222;SDS011;7557;51.698;3.942;2023-07-24T10:00:58;716.33;;;680.67;;
9222;SDS011;7557;51.698;3.942;2023-07-24T10:03:28;691.53;;;658.63;;
9222;SDS011;7557;51.698;3.942;2023-07-24T10:05:56;728.88;;;691.85;;
9222;SDS011;7557;51.698;3.942;2023-07-24T10:08:24;732.13;;;695.45;;
9222;SDS011;7557;51.698;3.942;2023-07-24T10:10:52;688.70;;;655.65;;
9222;SDS011;7557;51.698;3.942;2023-07-24T10:13:19;690.80;;;657.58;;
9222;SDS011;7557;51.698;3.942;2023-07-24T10:15:48;692.13;;;657.90;;
9222;SDS011;7557;51.698;3.942;2023-07-24T10:18:17;694.13;;;660.75;;
9222;SDS011;7557;51.698;3.942;2023-07-24T10:20:59;692.97;;;659.20;;
9222;SDS011;7557;51.698;3.942;2023-07-24T10:23:27;661.08;;;629.78;;
9222;SDS011;7557;51.698;3.942;2023-07-24T10:25:54;664.20;;;633.20;;
9222;SDS011;7557;51.698;3.942;2023-07-24T10:28:29;690.40;;;657.75;;
9222;SDS011;7557;51.698;3.942;2023-07-24T10:30:57;651.53;;;621.00;;
9222;SDS011;7557;51.698;3.942;2023-07-24T10:33:29;683.55;;;651.22;;
9222;SDS011;7557;51.698;3.942;2023-07-24T10:36:03;709.03;;;674.72;;
9222;SDS011;7557;51.698;3.942;2023-07-24T10:38:34;636.58;;;607.15;;
9222;SDS011;7557;51.698;3.942;2023-07-24T10:41:03;623.00;;;595.13;;
9222;SDS011;7557;51.698;3.942;2023-07-24T10:43:41;627.85;;;599.58;;
9222;SDS011;7557;51.698;3.942;2023-07-24T10:46:10;624.13;;;595.92;;
9222;SDS011;7557;51.698;3.942;2023-07-24T10:48:41;659.55;;;628.33;;
9222;SDS011;7557;51.698;3.942;2023-07-24T10:51:10;675.70;;;643.88;;
9222;SDS011;7557;51.698;3.942;2023-07-24T10:53:40;590.42;;;563.58;;
9222;SDS011;7557;51.698;3.942;2023-07-24T10:56:09;553.67;;;530.20;;
9222;SDS011;7557;51.698;3.942;2023-07-24T10:58:36;557.90;;;534.03;;
9222;SDS011;7557;51.698;3.942;2023-07-24T11:01:03;591.28;;;564.78;;
9222;SDS011;7557;51.698;3.942;2023-07-24T11:03:31;678.42;;;645.90;;
9222;SDS011;7557;51.698;3.942;2023-07-24T11:06:03;574.85;;;549.15;;
9222;SDS011;7557;51.698;3.942;2023-07-24T11:08:31;628.72;;;600.25;;
9222;SDS011;7557;51.698;3.942;2023-07-24T11:11:01;606.83;;;579.58;;
9222;SDS011;7557;51.698;3.942;2023-07-24T11:13:29;654.75;;;624.15;;
9222;SDS011;7557;51.698;3.942;2023-07-24T11:15:57;669.08;;;637.25;;
9222;SDS011;7557;51.698;3.942;2023-07-24T11:18:31;638.80;;;609.83;;
9222;SDS011;7557;51.698;3.942;2023-07-24T11:20:58;614.17;;;585.83;;
9222;SDS011;7557;51.698;3.942;2023-07-24T11:23:28;656.25;;;625.33;;
9222;SDS011;7557;51.698;3.942;2023-07-24T11:25:56;676.67;;;644.85;;
9222;SDS011;7557;51.698;3.942;2023-07-24T11:28:23;616.50;;;589.13;;
9222;SDS011;7557;51.698;3.942;2023-07-24T11:30:51;637.95;;;608.70;;
9222;SDS011;7557;51.698;3.942;2023-07-24T11:33:18;625.75;;;597.20;;
9222;SDS011;7557;51.698;3.942;2023-07-24T11:35:46;617.33;;;589.10;;
9222;SDS011;7557;51.698;3.942;2023-07-24T11:38:14;545.78;;;522.22;;
9222;SDS011;7557;51.698;3.942;2023-07-24T11:40:44;588.75;;;562.22;;
9222;SDS011;7557;51.698;3.942;2023-07-24T11:43:16;605.05;;;577.50;;
9222;SDS011;7557;51.698;3.942;2023-07-24T11:45:44;529.25;;;506.38;;
9222;SDS011;7557;51.698;3.942;2023-07-24T11:48:14;466.48;;;447.98;;
9222;SDS011;7557;51.698;3.942;2023-07-24T11:50:42;520.75;;;499.00;;
9222;SDS011;7557;51.698;3.942;2023-07-24T11:53:18;444.77;;;427.30;;
9222;SDS011;7557;51.698;3.942;2023-07-24T11:55:51;471.52;;;451.75;;
9222;SDS011;7557;51.698;3.942;2023-07-24T11:58:20;570.10;;;544.53;;
9222;SDS011;7557;51.698;3.942;2023-07-24T12:00:48;656.45;;;625.53;;
9222;SDS011;7557;51.698;3.942;2023-07-24T12:03:18;613.97;;;586.05;;
9222;SDS011;7557;51.698;3.942;2023-07-24T12:05:46;629.78;;;601.42;;
9222;SDS011;7557;51.698;3.942;2023-07-24T12:08:13;613.05;;;585.78;;
9222;SDS011;7557;51.698;3.942;2023-07-24T12:10:42;600.95;;;574.42;;
9222;SDS011;7557;51.698;3.942;2023-07-24T12:13:11;569.65;;;545.13;;
9222;SDS011;7557;51.698;3.942;2023-07-24T12:15:39;587.35;;;562.85;;
9222;SDS011;7557;51.698;3.942;2023-07-24T12:18:07;651.03;;;621.13;;
9222;SDS011;7557;51.698;3.942;2023-07-24T12:20:34;672.17;;;640.85;;
9222;SDS011;7557;51.698;3.942;2023-07-24T12:23:02;673.22;;;641.85;;
9222;SDS011;7557;51.698;3.942;2023-07-24T12:25:30;648.60;;;619.08;;
9222;SDS011;7557;51.698;3.942;2023-07-24T12:27:57;657.67;;;628.22;;
9222;SDS011;7557;51.698;3.942;2023-07-24T12:30:26;611.15;;;584.45;;
9222;SDS011;7557;51.698;3.942;2023-07-24T12:32:54;640.42;;;612.65;;
9222;SDS011;7557;51.698;3.942;2023-07-24T12:35:21;572.55;;;547.90;;
9222;SDS011;7557;51.698;3.942;2023-07-24T12:37:48;621.72;;;594.50;;
9222;SDS011;7557;51.698;3.942;2023-07-24T12:40:16;649.85;;;620.55;;
9222;SDS011;7557;51.698;3.942;2023-07-24T12:42:43;595.58;;;570.13;;
9222;SDS011;7557;51.698;3.942;2023-07-24T12:45:11;540.47;;;518.47;;
9222;SDS011;7557;51.698;3.942;2023-07-24T12:47:40;576.85;;;551.83;;
9222;SDS011;7557;51.698;3.942;2023-07-24T12:50:07;531.83;;;509.67;;
9222;SDS011;7557;51.698;3.942;2023-07-24T12:52:35;504.23;;;484.02;;
9222;SDS011;7557;51.698;3.942;2023-07-24T12:55:03;541.83;;;519.30;;
9222;SDS011;7557;51.698;3.942;2023-07-24T12:57:31;593.50;;;567.75;;
9222;SDS011;7557;51.698;3.942;2023-07-24T12:59:59;570.25;;;546.22;;
9222;SDS011;7557;51.698;3.942;2023-07-24T13:02:26;577.67;;;553.22;;
9222;SDS011;7557;51.698;3.942;2023-07-24T13:04:55;588.28;;;563.33;;
9222;SDS011;7557;51.698;3.942;2023-07-24T13:07:22;581.63;;;556.97;;
9222;SDS011;7557;51.698;3.942;2023-07-24T13:09:50;613.80;;;586.72;;
9222;SDS011;7557;51.698;3.942;2023-07-24T13:12:17;546.55;;;523.80;;
9222;SDS011;7557;51.698;3.942;2023-07-24T13:14:44;455.33;;;438.10;;
9222;SDS011;7557;51.698;3.942;2023-07-24T13:17:12;605.10;;;577.47;;
9222;SDS011;7557;51.698;3.942;2023-07-24T13:19:39;716.13;;;677.42;;
9222;SDS011;7557;51.698;3.942;2023-07-24T13:22:08;937.72;;;871.22;;
9222;SDS011;7557;51.698;3.942;2023-07-24T13:24:35;1087.85;;;913.95;;
9222;SDS011;7557;51.698;3.942;2023-07-24T13:27:03;853.33;;;791.95;;
9222;SDS011;7557;51.698;3.942;2023-07-24T13:29:30;759.42;;;715.13;;
9222;SDS011;7557;51.698;3.942;2023-07-24T13:31:58;665.67;;;631.35;;
9222;SDS011;7557;51.698;3.942;2023-07-24T13:34:26;732.83;;;691.58;;
9222;SDS011;7557;51.698;3.942;2023-07-24T13:36:53;782.53;;;737.17;;
9222;SDS011;7557;51.698;3.942;2023-07-24T13:39:22;804.75;;;751.13;;
9222;SDS011;7557;51.698;3.942;2023-07-24T13:41:51;993.08;;;902.95;;
9222;SDS011;7557;51.698;3.942;2023-07-24T13:44:18;944.75;;;873.38;;
9222;SDS011;7557;51.698;3.942;2023-07-24T13:46:45;975.38;;;888.17;;
9222;SDS011;7557;51.698;3.942;2023-07-24T13:49:13;959.92;;;877.35;;
9222;SDS011;7557;51.698;3.942;2023-07-24T13:51:40;952.10;;;876.53;;
9222;SDS011;7557;51.698;3.942;2023-07-24T13:54:08;897.00;;;825.08;;
9222;SDS011;7557;51.698;3.942;2023-07-24T13:56:37;1080.03;;;968.00;;
9222;SDS011;7557;51.698;3.942;2023-07-24T13:59:04;1009.03;;;915.70;;
9222;SDS011;7557;51.698;3.942;2023-07-24T14:01:31;1109.35;;;990.05;;
9222;SDS011;7557;51.698;3.942;2023-07-24T14:03:59;1077.90;;;980.40;;
9222;SDS011;7557;51.698;3.942;2023-07-24T14:06:26;1053.13;;;958.65;;
9222;SDS011;7557;51.698;3.942;2023-07-24T14:08:54;1088.20;;;978.65;;
9222;SDS011;7557;51.698;3.942;2023-07-24T14:11:21;1056.47;;;956.70;;
9222;SDS011;7557;51.698;3.942;2023-07-24T14:13:51;1112.55;;;999.05;;
9222;SDS011;7557;51.698;3.942;2023-07-24T14:16:19;1131.53;;;997.42;;
9222;SDS011;7557;51.698;3.942;2023-07-24T14:18:46;1306.35;;;999.90;;
9222;SDS011;7557;51.698;3.942;2023-07-24T14:21:13;1369.82;;;998.47;;
9222;SDS011;7557;51.698;3.942;2023-07-24T14:23:41;1141.00;;;999.90;;
9222;SDS011;7557;51.698;3.942;2023-07-24T14:26:09;1111.25;;;995.55;;
9222;SDS011;7557;51.698;3.942;2023-07-24T14:28:36;1099.93;;;985.63;;
9222;SDS011;7557;51.698;3.942;2023-07-24T14:31:05;1066.72;;;964.00;;